Time;durP1;ratioP1;P1;durP2;ratioP2;P2;SDS_P1;SDS_P2;PMS_P1;PMS_P2;Temp;Humidity;BMP_temperature;BMP_pressure;BME280_temperature;BME280_humidity;BME280_pressure;Samples;Min_cycle;Max_cycle;Signal;HPM_P1;HPM_P2
2023/10/31 00:02:13;;;;;;;0.40;0.40;;;14.40;99.90;;;;;;5031507;28;20463;-85
2023/10/31 00:04:40;;;;;;;0.57;0.57;;;14.40;99.90;;;;;;5022557;28;20443;-79
2023/10/31 00:07:07;;;;;;;0.83;0.80;;;14.40;99.90;;;;;;5028857;28;20442;-79
2023/10/31 00:09:34;;;;;;;0.63;0.63;;;14.50;99.90;;;;;;5022867;28;20439;-82
2023/10/31 00:12:01;;;;;;;0.53;0.53;;;14.40;99.90;;;;;;5021796;28;20474;-80
2023/10/31 00:14:28;;;;;;;2.20;1.80;;;14.30;99.90;;;;;;5020065;28;20439;-80
2023/10/31 00:16:58;;;;;;;1.27;1.23;;;14.40;99.90;;;;;;5036704;28;20450;-87
2023/10/31 00:19:25;;;;;;;0.50;0.50;;;14.50;99.90;;;;;;5027776;28;20479;-79
2023/10/31 00:21:52;;;;;;;1.00;1.00;;;14.50;99.90;;;;;;5025731;28;20438;-86
2023/10/31 00:24:20;;;;;;;3.03;1.90;;;14.40;99.90;;;;;;5019363;28;20422;-88
2023/10/31 00:26:47;;;;;;;2.80;1.07;;;14.40;99.90;;;;;;5040884;28;20438;-79
2023/10/31 00:29:14;;;;;;;0.53;0.53;;;14.50;99.90;;;;;;5013745;28;20663;-77
2023/10/31 00:31:41;;;;;;;0.50;0.50;;;14.50;99.90;;;;;;5006265;28;20683;-82
2023/10/31 00:34:08;;;;;;;0.60;0.60;;;14.50;99.90;;;;;;5021053;28;20481;-79
2023/10/31 00:36:35;;;;;;;0.40;0.40;;;14.40;99.90;;;;;;5023060;28;20439;-80
2023/10/31 00:39:02;;;;;;;0.50;0.50;;;14.50;99.90;;;;;;5033234;28;20826;-80
2023/10/31 00:41:30;;;;;;;0.53;0.53;;;14.50;99.90;;;;;;5032310;28;20489;-81
2023/10/31 00:43:58;;;;;;;0.60;0.60;;;14.60;99.90;;;;;;5032199;28;20652;-79
2023/10/31 00:46:24;;;;;;;0.50;0.50;;;14.60;99.90;;;;;;5029299;28;20439;-81
2023/10/31 00:48:51;;;;;;;0.40;0.40;;;14.60;99.90;;;;;;5033511;28;20825;-84
2023/10/31 00:51:19;;;;;;;1.17;0.97;;;14.60;99.90;;;;;;5024811;28;20467;-78
2023/10/31 00:53:45;;;;;;;0.73;0.73;;;14.80;99.90;;;;;;5031504;28;20435;-79
2023/10/31 00:56:13;;;;;;;0.87;0.87;;;14.70;99.90;;;;;;5025841;28;20519;-78
2023/10/31 00:58:39;;;;;;;0.83;0.83;;;14.80;99.90;;;;;;5032587;28;20471;-86
2023/10/31 01:01:07;;;;;;;0.40;0.40;;;14.50;99.90;;;;;;5035840;28;20536;-79
2023/10/31 01:03:33;;;;;;;0.67;0.67;;;14.80;99.90;;;;;;5022420;28;20439;-80
2023/10/31 01:06:01;;;;;;;1.20;1.20;;;15.00;99.90;;;;;;5017854;28;20432;-78
2023/10/31 01:08:27;;;;;;;0.40;0.40;;;14.90;99.90;;;;;;5021474;28;20666;-78
2023/10/31 01:10:54;;;;;;;3.43;3.17;;;15.00;99.90;;;;;;5025345;28;20474;-79
2023/10/31 01:13:22;;;;;;;0.40;0.40;;;14.90;99.90;;;;;;5034093;28;20490;-79
2023/10/31 01:15:48;;;;;;;0.40;0.40;;;15.00;99.90;;;;;;5020511;28;20465;-78
2023/10/31 01:18:16;;;;;;;1.47;1.37;;;14.90;99.90;;;;;;5025126;28;20409;-81
2023/10/31 01:20:43;;;;;;;0.70;0.70;;;14.80;99.90;;;;;;5021355;28;20741;-79
2023/10/31 01:23:10;;;;;;;0.50;0.50;;;14.90;99.90;;;;;;5019700;28;20475;-79
2023/10/31 01:25:37;;;;;;;0.50;0.50;;;15.20;99.90;;;;;;5021187;28;20443;-77
2023/10/31 01:28:04;;;;;;;0.70;0.70;;;15.10;99.90;;;;;;5028548;28;20489;-77
2023/10/31 01:30:31;;;;;;;0.47;0.47;;;15.00;99.90;;;;;;5024442;28;20506;-77
2023/10/31 01:32:58;;;;;;;0.53;0.53;;;15.00;99.90;;;;;;5024575;28;20468;-81
2023/10/31 01:35:25;;;;;;;1.83;1.73;;;15.00;99.90;;;;;;5024758;28;20451;-79
2023/10/31 01:37:52;;;;;;;0.87;0.87;;;15.10;99.90;;;;;;5024799;28;20575;-78
2023/10/31 01:40:19;;;;;;;0.50;0.50;;;14.90;99.90;;;;;;5035698;28;20680;-77
2023/10/31 01:43:04;;;;;;;0.50;0.50;;;14.90;99.90;;;;;;5029098;28;20413;-80
2023/10/31 01:45:31;;;;;;;0.60;0.60;;;14.90;99.90;;;;;;5035316;28;20469;-79
2023/10/31 01:47:58;;;;;;;0.80;0.80;;;15.00;99.90;;;;;;5030826;28;20523;-79
2023/10/31 01:50:25;;;;;;;1.23;1.17;;;15.00;99.90;;;;;;5032407;28;20425;-87
2023/10/31 01:52:52;;;;;;;0.60;0.60;;;15.10;99.90;;;;;;5035085;28;20497;-79
2023/10/31 01:55:21;;;;;;;2.80;2.70;;;15.10;99.90;;;;;;5029098;28;20439;-79
2023/10/31 01:57:49;;;;;;;0.60;0.60;;;14.90;99.90;;;;;;5030597;28;20449;-84
2023/10/31 02:00:16;;;;;;;0.50;0.50;;;14.90;99.90;;;;;;5029574;28;20473;-81
2023/10/31 02:02:43;;;;;;;0.50;0.50;;;15.00;99.90;;;;;;5034625;28;20438;-79
2023/10/31 02:05:11;;;;;;;0.40;0.40;;;14.90;99.90;;;;;;5036151;28;20702;-79
2023/10/31 02:07:38;;;;;;;0.50;0.50;;;14.90;99.90;;;;;;5025309;28;20438;-79
2023/10/31 02:10:05;;;;;;;0.50;0.50;;;14.90;99.90;;;;;;5017486;28;20486;-84
2023/10/31 02:12:37;;;;;;;0.70;0.70;;;14.80;99.90;;;;;;5031371;28;20497;-79
2023/10/31 02:15:05;;;;;;;0.60;0.60;;;14.80;99.90;;;;;;5038024;28;20497;-80
2023/10/31 02:17:32;;;;;;;0.93;0.93;;;14.90;99.90;;;;;;5034724;28;20445;-79
2023/10/31 02:19:59;;;;;;;1.40;1.30;;;14.80;99.90;;;;;;5023856;28;20917;-79
2023/10/31 02:22:26;;;;;;;0.70;0.70;;;14.70;99.90;;;;;;5024953;28;20601;-79
2023/10/31 02:24:53;;;;;;;0.63;0.63;;;14.80;99.90;;;;;;5032259;28;20412;-79
2023/10/31 02:27:20;;;;;;;2.13;1.93;;;14.70;99.90;;;;;;5023454;28;20436;-81
2023/10/31 02:29:47;;;;;;;0.50;0.50;;;14.70;99.90;;;;;;5029096;28;20428;-84
2023/10/31 02:32:15;;;;;;;0.50;0.50;;;14.80;99.90;;;;;;5029273;28;20493;-82
2023/10/31 02:34:44;;;;;;;0.50;0.50;;;14.80;99.90;;;;;;5031128;28;20464;-82
2023/10/31 02:37:11;;;;;;;0.93;0.93;;;14.90;99.90;;;;;;5035671;28;20435;-80
2023/10/31 02:39:39;;;;;;;0.60;0.60;;;14.90;99.90;;;;;;5033322;28;20513;-78
2023/10/31 02:42:06;;;;;;;0.77;0.77;;;14.80;99.90;;;;;;5042967;28;20501;-79
2023/10/31 02:44:33;;;;;;;0.43;0.43;;;14.80;99.90;;;;;;5026481;28;20461;-79
2023/10/31 02:47:01;;;;;;;1.53;1.43;;;14.70;99.90;;;;;;5024142;28;20654;-78
2023/10/31 02:49:28;;;;;;;0.90;0.90;;;14.70;99.90;;;;;;5032240;28;20432;-79
2023/10/31 02:51:55;;;;;;;0.80;0.80;;;14.60;99.90;;;;;;5035343;28;20409;-79
2023/10/31 02:54:22;;;;;;;0.67;0.67;;;14.60;99.90;;;;;;5029923;28;20565;-78
2023/10/31 02:56:49;;;;;;;0.50;0.50;;;14.60;99.90;;;;;;5030760;28;20506;-80
2023/10/31 02:59:16;;;;;;;0.50;0.50;;;14.60;99.90;;;;;;5036218;28;20507;-78
2023/10/31 03:01:43;;;;;;;1.03;1.03;;;14.70;99.90;;;;;;5031768;28;20494;-78
2023/10/31 03:04:10;;;;;;;0.93;0.93;;;14.60;99.90;;;;;;5038176;28;20506;-81
2023/10/31 03:06:37;;;;;;;0.50;0.50;;;14.60;99.90;;;;;;5031997;28;20481;-80
2023/10/31 03:09:05;;;;;;;0.60;0.60;;;14.70;99.90;;;;;;5032084;28;20778;-81
2023/10/31 03:11:32;;;;;;;0.50;0.50;;;14.90;99.90;;;;;;5031690;28;20446;-79
2023/10/31 03:13:59;;;;;;;0.50;0.50;;;15.10;99.90;;;;;;5023231;28;20477;-78
2023/10/31 03:16:27;;;;;;;0.90;0.90;;;15.00;99.90;;;;;;5023118;28;20421;-82
2023/10/31 03:18:54;;;;;;;0.60;0.60;;;14.80;99.90;;;;;;5025260;28;20494;-81
2023/10/31 03:21:21;;;;;;;0.60;0.60;;;14.90;99.90;;;;;;5024999;28;20836;-79
2023/10/31 03:23:50;;;;;;;0.50;0.50;;;14.90;99.90;;;;;;5033001;28;20443;-80
2023/10/31 03:26:17;;;;;;;2.50;2.00;;;15.00;99.90;;;;;;5025216;28;20516;-82
2023/10/31 03:28:44;;;;;;;1.17;0.80;;;14.90;99.90;;;;;;5029720;28;20685;-79
2023/10/31 03:31:12;;;;;;;2.27;2.07;;;14.80;99.90;;;;;;5033298;28;20657;-79
2023/10/31 03:33:40;;;;;;;1.33;1.33;;;15.00;99.90;;;;;;5034299;28;20492;-85
2023/10/31 03:36:11;;;;;;;0.50;0.50;;;15.20;99.90;;;;;;5031142;28;20502;-80
2023/10/31 03:38:37;;;;;;;0.50;0.50;;;15.00;99.90;;;;;;5025916;28;20438;-79
2023/10/31 03:41:05;;;;;;;0.50;0.50;;;14.80;99.90;;;;;;5030892;28;20470;-80
2023/10/31 03:43:32;;;;;;;0.50;0.50;;;14.70;99.90;;;;;;5027139;28;20447;-79
2023/10/31 03:45:59;;;;;;;0.50;0.50;;;14.60;99.90;;;;;;5026304;28;20458;-78
2023/10/31 03:48:27;;;;;;;1.10;1.10;;;14.70;99.90;;;;;;5025233;28;20775;-77
2023/10/31 03:50:54;;;;;;;0.50;0.50;;;14.60;99.90;;;;;;5030141;28;20512;-78
2023/10/31 03:53:21;;;;;;;0.60;0.60;;;14.70;99.90;;;;;;5027815;28;20436;-79
2023/10/31 03:55:48;;;;;;;0.60;0.60;;;14.60;99.90;;;;;;5023844;28;20414;-78
2023/10/31 03:58:15;;;;;;;0.93;0.93;;;14.60;99.90;;;;;;5022331;28;20536;-77
2023/10/31 04:00:43;;;;;;;0.70;0.70;;;14.60;99.90;;;;;;5024002;28;20489;-80
2023/10/31 04:03:10;;;;;;;0.73;0.73;;;14.60;99.90;;;;;;5037069;28;20485;-79
2023/10/31 04:05:37;;;;;;;0.60;0.60;;;14.50;99.90;;;;;;5027223;28;20775;-78
2023/10/31 04:08:04;;;;;;;0.40;0.40;;;14.40;99.90;;;;;;5031238;28;20482;-78
2023/10/31 04:10:31;;;;;;;0.50;0.50;;;14.30;99.90;;;;;;5031332;28;20438;-79
2023/10/31 04:13:00;;;;;;;0.50;0.50;;;14.40;99.90;;;;;;5036898;28;20442;-80
2023/10/31 04:15:27;;;;;;;0.60;0.60;;;14.50;99.90;;;;;;5024865;28;20451;-80
2023/10/31 04:17:54;;;;;;;0.80;0.80;;;14.60;99.90;;;;;;5023910;28;20462;-80
2023/10/31 04:20:22;;;;;;;0.50;0.50;;;14.50;99.90;;;;;;5023217;28;20475;-79
2023/10/31 04:22:48;;;;;;;0.50;0.50;;;14.50;99.90;;;;;;5030469;28;20426;-80
2023/10/31 04:25:16;;;;;;;0.50;0.50;;;14.50;99.90;;;;;;5026086;28;20439;-79
2023/10/31 04:27:43;;;;;;;0.60;0.60;;;14.60;99.90;;;;;;5020493;28;20489;-80
2023/10/31 04:30:10;;;;;;;0.50;0.50;;;14.50;99.90;;;;;;5029846;28;20511;-79
2023/10/31 04:32:40;;;;;;;1.47;1.37;;;14.60;99.90;;;;;;5030043;28;20502;-82
2023/10/31 04:35:08;;;;;;;0.50;0.50;;;14.70;99.90;;;;;;5018080;28;20659;-80
2023/10/31 04:37:35;;;;;;;0.80;0.80;;;14.70;99.90;;;;;;5024493;28;20608;-82
2023/10/31 04:40:04;;;;;;;0.70;0.70;;;14.80;99.90;;;;;;5013724;28;20471;-80
2023/10/31 04:42:33;;;;;;;0.50;0.50;;;14.80;99.90;;;;;;5028815;28;20494;-80
2023/10/31 04:45:00;;;;;;;0.80;0.80;;;14.90;99.90;;;;;;5014013;28;20443;-80
2023/10/31 04:47:27;;;;;;;0.60;0.60;;;15.00;99.90;;;;;;5018209;28;20467;-79
2023/10/31 04:49:56;;;;;;;0.67;0.67;;;15.30;99.90;;;;;;5022465;28;20464;-80
2023/10/31 04:52:25;;;;;;;0.40;0.40;;;15.50;99.90;;;;;;5032340;28;20447;-83
2023/10/31 04:54:53;;;;;;;0.50;0.50;;;15.90;99.90;;;;;;5036185;28;20434;-81
2023/10/31 04:57:20;;;;;;;0.50;0.50;;;15.90;99.90;;;;;;5037330;28;20487;-85
2023/10/31 04:59:47;;;;;;;0.93;0.93;;;15.90;99.90;;;;;;5041822;28;20471;-82
2023/10/31 05:02:14;;;;;;;0.50;0.50;;;16.10;99.90;;;;;;5036653;28;20519;-80
2023/10/31 05:04:41;;;;;;;1.03;1.03;;;16.10;99.90;;;;;;5035350;28;20413;-79
2023/10/31 05:07:08;;;;;;;0.50;0.50;;;16.10;99.90;;;;;;5036873;28;20458;-80
2023/10/31 05:09:36;;;;;;;0.60;0.60;;;16.10;99.90;;;;;;5039727;28;20406;-80
2023/10/31 05:12:03;;;;;;;0.80;0.80;;;15.90;99.90;;;;;;5030572;28;20789;-82
2023/10/31 05:14:30;;;;;;;0.60;0.60;;;16.20;99.90;;;;;;5032937;28;20678;-83
2023/10/31 05:16:57;;;;;;;0.53;0.53;;;16.20;99.90;;;;;;5029935;28;20510;-82
2023/10/31 05:19:25;;;;;;;1.03;1.03;;;16.20;99.90;;;;;;5028796;28;20477;-80
2023/10/31 05:21:52;;;;;;;0.53;0.53;;;16.30;99.90;;;;;;5029729;28;20503;-79
2023/10/31 05:24:19;;;;;;;1.23;1.13;;;16.00;99.90;;;;;;5039698;28;20424;-80
2023/10/31 05:26:46;;;;;;;0.60;0.60;;;15.70;99.90;;;;;;5029933;28;20484;-82
2023/10/31 05:29:14;;;;;;;0.50;0.50;;;15.70;99.90;;;;;;5043025;28;20487;-83
2023/10/31 05:31:42;;;;;;;3.07;2.70;;;15.50;99.90;;;;;;5036873;28;20481;-80
2023/10/31 05:34:09;;;;;;;0.50;0.50;;;15.40;99.90;;;;;;5026115;28;20462;-81
2023/10/31 05:36:37;;;;;;;0.50;0.50;;;15.20;99.90;;;;;;5031492;28;20769;-81
2023/10/31 05:39:04;;;;;;;0.70;0.70;;;15.20;99.90;;;;;;5025926;28;20506;-81
2023/10/31 05:41:34;;;;;;;0.77;0.77;;;15.10;99.90;;;;;;5029842;28;20472;-81
2023/10/31 05:44:01;;;;;;;0.50;0.50;;;14.90;99.90;;;;;;5021869;28;20450;-81
2023/10/31 05:46:29;;;;;;;3.70;3.40;;;14.90;99.90;;;;;;5028253;28;20740;-80
2023/10/31 05:48:56;;;;;;;0.50;0.50;;;14.80;99.90;;;;;;5026936;28;20443;-81
2023/10/31 05:51:25;;;;;;;1.67;1.57;;;14.90;99.90;;;;;;5031080;28;20435;-81
2023/10/31 05:53:55;;;;;;;4.63;1.43;;;14.60;99.90;;;;;;5028918;28;20544;-84
2023/10/31 05:56:22;;;;;;;1.67;1.57;;;14.60;99.90;;;;;;5032958;28;20439;-81
2023/10/31 05:58:49;;;;;;;0.50;0.50;;;14.40;99.90;;;;;;5027532;28;20449;-86
2023/10/31 06:01:16;;;;;;;0.53;0.53;;;14.30;99.90;;;;;;5018149;28;20477;-87
2023/10/31 06:03:44;;;;;;;0.50;0.50;;;14.10;99.90;;;;;;5030931;28;20462;-87
2023/10/31 06:06:12;;;;;;;0.50;0.50;;;14.10;99.90;;;;;;5028690;28;20447;-84
2023/10/31 06:08:40;;;;;;;0.50;0.50;;;14.00;99.90;;;;;;5019920;28;20528;-84
2023/10/31 06:11:12;;;;;;;0.63;0.63;;;14.10;99.90;;;;;;5025497;28;20469;-88
2023/10/31 06:13:39;;;;;;;0.40;0.40;;;14.00;99.90;;;;;;5025650;28;20467;-83
2023/10/31 06:16:07;;;;;;;1.53;1.47;;;14.00;99.90;;;;;;5046069;28;20427;-83
2023/10/31 06:18:35;;;;;;;0.40;0.40;;;14.00;99.90;;;;;;5047371;28;20442;-85
2023/10/31 06:21:02;;;;;;;1.17;1.13;;;14.00;99.90;;;;;;5052584;28;20488;-82
2023/10/31 06:23:29;;;;;;;0.60;0.60;;;14.00;99.90;;;;;;5044466;28;20450;-82
2023/10/31 06:25:58;;;;;;;1.07;1.07;;;13.90;99.90;;;;;;5044024;28;20534;-83
2023/10/31 06:28:25;;;;;;;0.67;0.67;;;14.00;99.90;;;;;;5080825;22;20469;-87
2023/10/31 06:30:52;;;;;;;0.47;0.47;;;13.90;99.90;;;;;;5039020;28;20425;-81
2023/10/31 06:33:19;;;;;;;0.53;0.53;;;13.90;99.90;;;;;;5117361;23;20470;-84
2023/10/31 06:35:47;;;;;;;0.50;0.50;;;13.90;99.90;;;;;;5045789;28;20431;-86
2023/10/31 06:38:13;;;;;;;0.40;0.40;;;14.00;99.90;;;;;;5140117;23;21880;-84
2023/10/31 06:40:41;;;;;;;1.43;1.33;;;13.90;99.90;;;;;;5186667;23;20476;-86
2023/10/31 06:43:07;;;;;;;0.47;0.47;;;14.00;99.90;;;;;;5154633;22;20565;-87
2023/10/31 06:45:35;;;;;;;0.70;0.70;;;13.90;99.90;;;;;;5020073;28;20683;-82
2023/10/31 06:48:03;;;;;;;0.60;0.60;;;14.00;99.90;;;;;;5020913;28;20420;-87
2023/10/31 06:50:32;;;;;;;0.87;0.87;;;13.90;99.90;;;;;;5019586;28;20467;-86
2023/10/31 06:52:59;;;;;;;0.60;0.60;;;13.90;99.90;;;;;;5012694;28;20435;-89
2023/10/31 06:55:26;;;;;;;1.23;1.20;;;14.00;99.90;;;;;;5016615;28;20436;-89
2023/10/31 06:57:53;;;;;;;0.40;0.40;;;14.00;99.90;;;;;;5009361;28;20748;-82
2023/10/31 07:00:20;;;;;;;1.00;1.00;;;13.90;99.90;;;;;;5007927;28;20441;-83
2023/10/31 07:02:48;;;;;;;0.50;0.50;;;13.90;99.90;;;;;;5015447;28;20455;-80
2023/10/31 07:05:16;;;;;;;0.43;0.43;;;13.90;99.90;;;;;;5018426;28;20471;-83
2023/10/31 07:07:44;;;;;;;0.87;0.87;;;13.90;99.90;;;;;;5006826;28;20755;-83
2023/10/31 07:10:11;;;;;;;0.43;0.43;;;13.90;99.90;;;;;;5016095;28;20444;-85
2023/10/31 07:12:39;;;;;;;1.40;1.30;;;13.90;99.90;;;;;;5015708;28;20451;-85
2023/10/31 07:15:06;;;;;;;0.60;0.60;;;13.90;99.90;;;;;;5017985;28;20511;-90
2023/10/31 07:17:36;;;;;;;0.73;0.73;;;14.00;99.90;;;;;;5018749;28;20460;-88
2023/10/31 07:20:06;;;;;;;0.50;0.50;;;14.00;99.90;;;;;;5011734;28;20433;-88
2023/10/31 07:22:34;;;;;;;0.57;0.57;;;14.10;99.90;;;;;;5092141;23;20556;-90
2023/10/31 07:25:03;;;;;;;0.60;0.60;;;14.10;99.90;;;;;;5073551;28;20429;-83
2023/10/31 07:27:30;;;;;;;0.70;0.70;;;14.00;99.90;;;;;;5249963;23;20561;-85
2023/10/31 07:32:34;;;;;;;0.40;0.40;;;14.00;99.90;;;;;;5048686;23;20478;-84
2023/10/31 07:35:02;;;;;;;0.77;0.77;;;14.10;99.90;;;;;;5013847;28;20478;-84
2023/10/31 07:37:29;;;;;;;0.47;0.47;;;14.10;99.90;;;;;;5035068;28;20406;-83
2023/10/31 07:39:58;;;;;;;0.50;0.50;;;14.00;99.90;;;;;;5026252;28;20440;-86
2023/10/31 07:42:25;;;;;;;0.40;0.40;;;13.90;99.90;;;;;;5116880;22;20490;-83
2023/10/31 07:44:52;;;;;;;0.70;0.70;;;13.90;99.90;;;;;;5041408;28;20500;-85
2023/10/31 07:47:19;;;;;;;0.40;0.40;;;14.00;99.90;;;;;;5026703;28;20466;-89
2023/10/31 07:49:46;;;;;;;0.60;0.60;;;13.90;99.90;;;;;;5018937;28;20459;-88
2023/10/31 07:52:13;;;;;;;0.50;0.50;;;14.00;99.90;;;;;;5030686;28;20609;-84
2023/10/31 07:54:40;;;;;;;0.50;0.50;;;13.90;99.90;;;;;;5046102;28;20440;-87
2023/10/31 07:57:07;;;;;;;0.67;0.67;;;14.00;99.90;;;;;;5048864;28;20432;-85
2023/10/31 07:59:35;;;;;;;0.50;0.50;;;13.90;99.90;;;;;;5109553;23;20775;-86
2023/10/31 08:02:03;;;;;;;0.40;0.40;;;14.00;99.90;;;;;;5034104;28;20541;-89
2023/10/31 08:04:31;;;;;;;1.67;0.90;;;14.00;99.90;;;;;;5025556;28;20669;-85
2023/10/31 08:06:58;;;;;;;0.93;0.90;;;14.00;99.90;;;;;;5028956;28;20451;-87
2023/10/31 08:09:27;;;;;;;1.70;1.60;;;14.00;99.90;;;;;;5039011;28;20590;-87
2023/10/31 08:11:54;;;;;;;0.40;0.40;;;14.00;99.90;;;;;;5035586;28;20438;-85
2023/10/31 08:14:23;;;;;;;0.50;0.50;;;13.90;99.90;;;;;;5035752;28;20454;-83
2023/10/31 08:16:52;;;;;;;0.40;0.40;;;13.90;99.90;;;;;;5035174;28;20435;-85
2023/10/31 08:19:19;;;;;;;0.40;0.40;;;14.10;99.90;;;;;;5040647;28;20442;-82
2023/10/31 08:21:46;;;;;;;0.80;0.80;;;14.00;99.90;;;;;;5026120;28;20623;-84
2023/10/31 08:24:13;;;;;;;0.50;0.50;;;14.00;99.90;;;;;;5031738;28;20450;-84
2023/10/31 08:26:43;;;;;;;0.40;0.40;;;14.00;99.90;;;;;;5027057;28;20514;-88
2023/10/31 08:29:10;;;;;;;0.87;0.87;;;14.00;99.90;;;;;;5025292;28;20460;-86
2023/10/31 08:31:38;;;;;;;0.40;0.40;;;13.90;99.90;;;;;;5029466;28;20509;-86
2023/10/31 08:34:05;;;;;;;0.40;0.40;;;14.00;99.90;;;;;;5024717;28;20439;-85
2023/10/31 08:36:32;;;;;;;0.87;0.87;;;14.00;99.90;;;;;;5017939;28;20466;-88
2023/10/31 08:38:59;;;;;;;0.50;0.50;;;14.00;99.90;;;;;;5021838;28;20494;-87
2023/10/31 08:41:26;;;;;;;0.50;0.50;;;14.00;99.90;;;;;;5040982;28;20456;-84
2023/10/31 08:43:52;;;;;;;0.40;0.40;;;14.10;99.90;;;;;;5033211;28;20489;-86
2023/10/31 08:46:21;;;;;;;0.50;0.50;;;14.10;99.90;;;;;;5035451;28;20421;-87
2023/10/31 08:48:48;;;;;;;0.50;0.50;;;14.00;99.90;;;;;;5043283;28;20451;-86
2023/10/31 08:51:16;;;;;;;0.50;0.50;;;14.00;99.90;;;;;;5035338;28;20473;-85
2023/10/31 08:53:42;;;;;;;0.77;0.77;;;14.10;99.90;;;;;;5055643;23;20529;-86
2023/10/31 08:56:10;;;;;;;0.47;0.47;;;14.20;99.90;;;;;;5015013;28;20436;-85
2023/10/31 08:58:37;;;;;;;1.17;1.17;;;14.40;99.90;;;;;;5007451;28;20450;-86
2023/10/31 09:01:04;;;;;;;0.67;0.67;;;14.60;99.90;;;;;;5006013;28;20415;-85
2023/10/31 09:03:31;;;;;;;0.50;0.50;;;14.70;99.90;;;;;;5003437;28;20447;-83
2023/10/31 09:05:58;;;;;;;0.43;0.43;;;14.80;99.90;;;;;;5000165;28;20752;-84
2023/10/31 09:08:25;;;;;;;0.50;0.50;;;14.90;99.90;;;;;;5009053;28;20522;-83
2023/10/31 09:10:52;;;;;;;0.50;0.50;;;15.10;99.90;;;;;;5004992;28;20414;-83
2023/10/31 09:13:20;;;;;;;0.67;0.67;;;15.10;99.90;;;;;;4994956;28;20440;-83
2023/10/31 09:15:49;;;;;;;0.50;0.50;;;15.20;99.90;;;;;;5012005;28;20421;-84
2023/10/31 09:18:17;;;;;;;0.67;0.67;;;15.20;99.90;;;;;;5013854;28;20746;-83
2023/10/31 09:20:44;;;;;;;0.60;0.60;;;15.20;99.90;;;;;;5010633;28;20430;-82
2023/10/31 09:23:11;;;;;;;0.50;0.50;;;15.30;99.90;;;;;;5012720;28;20518;-82
2023/10/31 09:25:38;;;;;;;0.60;0.60;;;15.40;99.90;;;;;;5011139;28;20418;-83
2023/10/31 09:28:05;;;;;;;0.50;0.50;;;15.40;99.90;;;;;;5009388;28;20507;-84
2023/10/31 09:30:33;;;;;;;0.57;0.57;;;15.60;99.90;;;;;;5002247;28;20437;-81
2023/10/31 09:32:59;;;;;;;0.50;0.50;;;15.50;99.90;;;;;;5018797;28;20511;-82
2023/10/31 09:35:27;;;;;;;0.60;0.60;;;15.60;99.90;;;;;;5006796;28;20676;-86
2023/10/31 09:37:55;;;;;;;1.10;0.97;;;15.70;99.90;;;;;;5014019;28;20432;-84
2023/10/31 09:40:22;;;;;;;0.50;0.50;;;15.50;99.90;;;;;;5011439;28;20428;-83
2023/10/31 09:42:50;;;;;;;0.60;0.60;;;15.40;99.90;;;;;;5012424;28;20550;-82
2023/10/31 09:45:17;;;;;;;0.50;0.50;;;15.40;99.90;;;;;;5015662;28;20447;-83
2023/10/31 09:47:45;;;;;;;0.53;0.53;;;15.30;99.90;;;;;;5011647;28;20670;-85
2023/10/31 09:50:12;;;;;;;0.50;0.50;;;15.40;99.90;;;;;;5014739;28;20417;-86
2023/10/31 09:52:40;;;;;;;0.50;0.50;;;15.50;99.90;;;;;;5009545;28;20472;-83
2023/10/31 09:55:08;;;;;;;0.70;0.70;;;15.50;99.90;;;;;;5022538;28;20445;-83
2023/10/31 09:57:35;;;;;;;0.60;0.60;;;15.50;99.90;;;;;;5012035;28;20436;-83
2023/10/31 10:00:03;;;;;;;0.50;0.50;;;15.60;99.90;;;;;;5014233;28;20430;-82
2023/10/31 10:02:30;;;;;;;0.50;0.50;;;15.60;99.90;;;;;;5030133;28;20510;-83
2023/10/31 10:04:58;;;;;;;0.50;0.50;;;15.50;99.90;;;;;;5029149;28;20439;-82
2023/10/31 10:07:26;;;;;;;0.60;0.60;;;15.50;99.90;;;;;;5020025;28;20527;-81
2023/10/31 10:09:56;;;;;;;0.50;0.50;;;15.40;99.90;;;;;;5015524;28;20715;-82
2023/10/31 10:12:22;;;;;;;1.03;1.03;;;15.30;99.90;;;;;;5014522;28;20481;-82
2023/10/31 10:14:50;;;;;;;0.50;0.50;;;15.30;99.90;;;;;;5022095;28;20426;-81
2023/10/31 10:17:20;;;;;;;0.60;0.60;;;15.20;99.90;;;;;;5026046;28;20672;-81
2023/10/31 10:19:48;;;;;;;0.70;0.70;;;15.10;99.90;;;;;;5019053;28;20483;-82
2023/10/31 10:22:20;;;;;;;0.60;0.60;;;15.10;99.90;;;;;;5005698;28;20479;-82
2023/10/31 10:24:46;;;;;;;0.60;0.60;;;14.90;99.90;;;;;;5005231;28;20490;-83
2023/10/31 10:27:13;;;;;;;0.60;0.60;;;14.80;99.90;;;;;;5014492;28;20440;-83
2023/10/31 10:29:41;;;;;;;0.50;0.50;;;14.60;99.90;;;;;;5009180;28;20573;-82
2023/10/31 10:32:08;;;;;;;0.60;0.60;;;14.60;99.90;;;;;;5017532;28;20465;-86
2023/10/31 10:34:36;;;;;;;0.50;0.50;;;14.50;99.90;;;;;;5016074;28;20465;-87
2023/10/31 10:37:06;;;;;;;0.50;0.50;;;14.40;99.90;;;;;;5007965;28;20692;-83
2023/10/31 10:39:35;;;;;;;0.50;0.50;;;14.40;99.90;;;;;;5005796;28;20440;-83
2023/10/31 10:42:09;;;;;;;0.50;0.50;;;14.30;99.90;;;;;;5003383;28;20450;-83
2023/10/31 10:44:38;;;;;;;0.57;0.57;;;14.00;99.90;;;;;;5010176;28;20442;-83
2023/10/31 10:47:06;;;;;;;0.50;0.50;;;13.60;99.90;;;;;;5024445;28;20459;-85
2023/10/31 10:49:35;;;;;;;0.50;0.50;;;13.30;99.90;;;;;;5006448;28;20682;-82
2023/10/31 10:52:27;;;;;;;0.50;0.50;;;13.40;99.90;;;;;;5024185;28;20627;-81
2023/10/31 10:55:04;;;;;;;0.77;0.77;;;13.40;99.90;;;;;;4999786;28;20205;-80
2023/10/31 10:57:42;;;;;;;0.60;0.60;;;13.50;99.90;;;;;;5004925;28;20756;-84
2023/10/31 11:00:12;;;;;;;0.50;0.50;;;13.50;99.90;;;;;;5016874;28;20668;-80
2023/10/31 11:02:42;;;;;;;0.68;0.68;;;13.60;99.90;;;;;;5007261;28;20466;-80
2023/10/31 11:05:10;;;;;;;0.50;0.50;;;13.60;99.90;;;;;;5015703;28;20221;-80
2023/10/31 11:07:38;;;;;;;0.50;0.50;;;13.70;99.90;;;;;;5004587;28;20467;-80
2023/10/31 11:10:07;;;;;;;0.50;0.50;;;14.00;99.90;;;;;;5004388;28;20740;-82
2023/10/31 11:12:35;;;;;;;0.70;0.70;;;14.20;99.90;;;;;;5022989;28;20436;-84
2023/10/31 11:15:03;;;;;;;0.50;0.50;;;14.30;99.90;;;;;;5005587;28;20419;-84
2023/10/31 11:17:52;;;;;;;0.50;0.50;;;14.40;99.90;;;;;;5013167;28;20440;-85
2023/10/31 11:20:20;;;;;;;0.77;0.77;;;14.30;99.90;;;;;;5008457;28;20436;-82
2023/10/31 11:22:57;;;;;;;0.50;0.50;;;14.30;99.90;;;;;;4999363;28;20660;-86
2023/10/31 11:25:24;;;;;;;0.90;0.90;;;14.20;99.90;;;;;;5023660;28;20443;-82
2023/10/31 11:28:17;;;;;;;1.53;1.43;;;14.10;99.90;;;;;;5017459;28;20573;-84
2023/10/31 11:30:49;;;;;;;0.60;0.60;;;14.10;99.90;;;;;;5028968;28;20422;-86
2023/10/31 11:33:20;;;;;;;0.60;0.60;;;14.20;99.90;;;;;;5009998;28;20444;-80
2023/10/31 11:35:59;;;;;;;0.60;0.60;;;14.20;99.90;;;;;;4994682;28;20451;-86
2023/10/31 11:38:35;;;;;;;0.60;0.60;;;14.20;99.90;;;;;;5008607;28;20409;-83
2023/10/31 11:41:03;;;;;;;0.60;0.60;;;14.20;99.90;;;;;;5014251;28;20776;-82
2023/10/31 11:43:40;;;;;;;0.50;0.50;;;14.10;99.90;;;;;;5018763;28;20483;-82
2023/10/31 11:46:28;;;;;;;0.60;0.60;;;14.10;99.90;;;;;;5006087;28;20414;-87
2023/10/31 11:48:56;;;;;;;1.00;1.00;;;14.10;99.90;;;;;;5004767;28;20475;-85
2023/10/31 11:51:24;;;;;;;0.60;0.60;;;14.00;99.90;;;;;;5018076;28;20439;-80
2023/10/31 11:53:52;;;;;;;0.60;0.60;;;14.20;99.90;;;;;;5004060;28;20472;-81
2023/10/31 11:56:21;;;;;;;1.27;1.17;;;14.20;99.90;;;;;;5012045;28;20458;-81
2023/10/31 11:58:59;;;;;;;0.60;0.60;;;14.30;99.90;;;;;;5015959;28;20414;-80
2023/10/31 12:01:26;;;;;;;3.40;2.50;;;14.40;99.90;;;;;;5011212;28;20419;-84
2023/10/31 12:03:53;;;;;;;0.70;0.70;;;14.40;99.90;;;;;;5000824;28;20499;-81
2023/10/31 12:06:22;;;;;;;0.60;0.60;;;14.60;99.90;;;;;;5012313;28;20410;-82
2023/10/31 12:08:49;;;;;;;0.70;0.70;;;14.60;99.90;;;;;;5005049;28;20479;-83
2023/10/31 12:11:23;;;;;;;0.53;0.53;;;14.60;99.90;;;;;;5009201;28;20550;-84
2023/10/31 12:13:56;;;;;;;0.60;0.60;;;14.70;99.90;;;;;;5004709;28;20568;-84
2023/10/31 12:16:28;;;;;;;0.50;0.50;;;14.60;99.90;;;;;;5007937;28;20410;-84
2023/10/31 12:18:58;;;;;;;0.60;0.60;;;14.60;99.90;;;;;;5004385;28;20432;-83
2023/10/31 12:21:49;;;;;;;0.60;0.60;;;14.60;99.90;;;;;;5008614;28;20436;-86
2023/10/31 12:24:18;;;;;;;0.60;0.60;;;14.60;99.90;;;;;;5005248;28;20434;-86
2023/10/31 12:26:46;;;;;;;0.60;0.60;;;14.60;99.90;;;;;;5014654;28;20897;-85
2023/10/31 12:29:18;;;;;;;0.60;0.60;;;14.50;99.90;;;;;;5023303;28;20865;-85
2023/10/31 12:31:53;;;;;;;0.60;0.60;;;14.50;99.90;;;;;;5007965;28;20463;-87
2023/10/31 12:34:23;;;;;;;0.60;0.60;;;14.60;99.90;;;;;;5006955;28;20433;-87
2023/10/31 12:36:53;;;;;;;0.70;0.70;;;14.50;99.90;;;;;;5009435;28;20444;-86
2023/10/31 12:39:23;;;;;;;0.80;0.80;;;14.50;99.90;;;;;;5013351;28;20770;-87
2023/10/31 12:41:50;;;;;;;0.60;0.60;;;14.40;99.90;;;;;;5004565;28;20411;-87
2023/10/31 12:44:23;;;;;;;0.60;0.60;;;14.50;99.90;;;;;;5012836;28;20446;-85
2023/10/31 12:46:51;;;;;;;0.60;0.60;;;14.50;99.90;;;;;;5004531;28;20766;-82
2023/10/31 12:49:19;;;;;;;0.60;0.60;;;14.50;99.90;;;;;;4993876;28;20441;-86
2023/10/31 12:51:59;;;;;;;0.80;0.80;;;14.50;99.90;;;;;;5004229;28;20407;-87
2023/10/31 12:54:32;;;;;;;0.60;0.60;;;14.40;99.90;;;;;;5006342;28;20435;-85
2023/10/31 12:57:07;;;;;;;0.60;0.60;;;14.40;99.90;;;;;;5014323;28;20454;-90